sensor_id;sensor_type;location;lat;lon;timestamp;pressure;altitude;pressure_sealevel;temperature;humidity
75913;BME280;64592;52.168;21.040;2023-04-07T00:01:49;100293.66;;;3.69;100.00
75913;BME280;64592;52.168;21.040;2023-04-07T00:06:52;100295.28;;;3.71;100.00
75913;BME280;64592;52.168;21.040;2023-04-07T00:11:54;100284.47;;;3.74;100.00
75913;BME280;64592;52.168;21.040;2023-04-07T00:16:56;100285.09;;;3.79;100.00
75913;BME280;64592;52.168;21.040;2023-04-07T00:21:59;100279.56;;;3.84;100.00
75913;BME280;64592;52.168;21.040;2023-04-07T00:27:00;100274.88;;;3.89;100.00
75913;BME280;64592;52.168;21.040;2023-04-07T00:32:02;100273.75;;;3.93;100.00
75913;BME280;64592;52.168;21.040;2023-04-07T00:37:05;100271.03;;;3.95;100.00
75913;BME280;64592;52.168;21.040;2023-04-07T00:42:07;100266.41;;;3.98;100.00
75913;BME280;64592;52.168;21.040;2023-04-07T00:47:08;100270.72;;;4.01;100.00
75913;BME280;64592;52.168;21.040;2023-04-07T00:52:13;100261.63;;;4.05;100.00
75913;BME280;64592;52.168;21.040;2023-04-07T00:57:14;100264.22;;;4.06;100.00
75913;BME280;64592;52.168;21.040;2023-04-07T01:02:18;100264.13;;;4.08;100.00
75913;BME280;64592;52.168;21.040;2023-04-07T01:07:26;100260.47;;;4.10;100.00
75913;BME280;64592;52.168;21.040;2023-04-07T01:12:34;100259.53;;;4.11;100.00
75913;BME280;64592;52.168;21.040;2023-04-07T01:17:40;100258.59;;;4.12;100.00
75913;BME280;64592;52.168;21.040;2023-04-07T01:22:46;100262.91;;;4.15;100.00
75913;BME280;64592;52.168;21.040;2023-04-07T01:27:59;100248.53;;;4.17;100.00
75913;BME280;64592;52.168;21.040;2023-04-07T01:33:11;100248.31;;;4.22;100.00
75913;BME280;64592;52.168;21.040;2023-04-07T01:38:16;100251.59;;;4.27;100.00
75913;BME280;64592;52.168;21.040;2023-04-07T01:43:19;100247.81;;;4.31;100.00
75913;BME280;64592;52.168;21.040;2023-04-07T01:48:23;100246.81;;;4.34;100.00
75913;BME280;64592;52.168;21.040;2023-04-07T01:53:26;100237.94;;;4.33;100.00
75913;BME280;64592;52.168;21.040;2023-04-07T01:58:28;100243.22;;;4.35;100.00
75913;BME280;64592;52.168;21.040;2023-04-07T02:03:37;100236.84;;;4.37;100.00
75913;BME280;64592;52.168;21.040;2023-04-07T02:08:44;100240.28;;;4.39;100.00
75913;BME280;64592;52.168;21.040;2023-04-07T02:13:48;100239.28;;;4.42;100.00
75913;BME280;64592;52.168;21.040;2023-04-07T02:18:53;100246.28;;;4.44;100.00
75913;BME280;64592;52.168;21.040;2023-04-07T02:23:54;100248.75;;;4.47;100.00
75913;BME280;64592;52.168;21.040;2023-04-07T02:28:56;100254.88;;;4.49;100.00
75913;BME280;64592;52.168;21.040;2023-04-07T02:33:59;100245.88;;;4.52;100.00
75913;BME280;64592;52.168;21.040;2023-04-07T02:39:01;100230.69;;;4.52;100.00
75913;BME280;64592;52.168;21.040;2023-04-07T02:44:03;100226.31;;;4.51;100.00
75913;BME280;64592;52.168;21.040;2023-04-07T02:49:06;100241.06;;;4.58;100.00
75913;BME280;64592;52.168;21.040;2023-04-07T02:54:07;100238.28;;;4.60;100.00
75913;BME280;64592;52.168;21.040;2023-04-07T02:59:09;100242.63;;;4.62;100.00
75913;BME280;64592;52.168;21.040;2023-04-07T03:04:12;100234.53;;;4.64;100.00
75913;BME280;64592;52.168;21.040;2023-04-07T03:09:14;100248.56;;;4.67;100.00
75913;BME280;64592;52.168;21.040;2023-04-07T03:14:15;100246.69;;;4.69;100.00
75913;BME280;64592;52.168;21.040;2023-04-07T03:19:18;100249.22;;;4.73;100.00
75913;BME280;64592;52.168;21.040;2023-04-07T03:24:20;100247.28;;;4.75;100.00
75913;BME280;64592;52.168;21.040;2023-04-07T03:29:22;100242.75;;;4.77;100.00
75913;BME280;64592;52.168;21.040;2023-04-07T03:34:25;100241.66;;;4.81;100.00
75913;BME280;64592;52.168;21.040;2023-04-07T03:39:26;100247.75;;;4.83;100.00
75913;BME280;64592;52.168;21.040;2023-04-07T03:44:28;100246.66;;;4.87;100.00
75913;BME280;64592;52.168;21.040;2023-04-07T03:49:31;100235.03;;;4.88;100.00
75913;BME280;64592;52.168;21.040;2023-04-07T03:54:33;100241.06;;;4.91;100.00
75913;BME280;64592;52.168;21.040;2023-04-07T03:59:35;100235.63;;;4.93;100.00
75913;BME280;64592;52.168;21.040;2023-04-07T04:04:40;100245.38;;;4.94;100.00
75913;BME280;64592;52.168;21.040;2023-04-07T04:09:42;100238.03;;;4.97;100.00
75913;BME280;64592;52.168;21.040;2023-04-07T04:14:43;100245.97;;;4.99;100.00
75913;BME280;64592;52.168;21.040;2023-04-07T04:19:46;100238.75;;;5.01;100.00
75913;BME280;64592;52.168;21.040;2023-04-07T04:24:48;100253.75;;;5.03;100.00
75913;BME280;64592;52.168;21.040;2023-04-07T04:29:50;100257.19;;;5.05;100.00
75913;BME280;64592;52.168;21.040;2023-04-07T04:34:54;100258.06;;;5.06;100.00
75913;BME280;64592;52.168;21.040;2023-04-07T04:39:56;100261.53;;;5.08;100.00
75913;BME280;64592;52.168;21.040;2023-04-07T04:44:57;100265.84;;;5.11;100.00
75913;BME280;64592;52.168;21.040;2023-04-07T04:50:01;100252.28;;;5.14;100.00
75913;BME280;64592;52.168;21.040;2023-04-07T04:55:03;100255.69;;;5.17;100.00
75913;BME280;64592;52.168;21.040;2023-04-07T05:00:06;100262.66;;;5.20;100.00
75913;BME280;64592;52.168;21.040;2023-04-07T05:05:09;100263.44;;;5.22;100.00
75913;BME280;64592;52.168;21.040;2023-04-07T05:10:11;100263.16;;;5.26;100.00
75913;BME280;64592;52.168;21.040;2023-04-07T05:15:13;100263.94;;;5.28;100.00
75913;BME280;64592;52.168;21.040;2023-04-07T05:20:17;100269.13;;;5.31;100.00
75913;BME280;64592;52.168;21.040;2023-04-07T05:25:18;100267.13;;;5.35;100.00
75913;BME280;64592;52.168;21.040;2023-04-07T05:30:20;100267.84;;;5.38;100.00
75913;BME280;64592;52.168;21.040;2023-04-07T05:35:23;100269.59;;;5.39;100.00
75913;BME280;64592;52.168;21.040;2023-04-07T05:40:25;100266.72;;;5.42;100.00
75913;BME280;64592;52.168;21.040;2023-04-07T05:45:26;100262.94;;;5.46;100.00
75913;BME280;64592;52.168;21.040;2023-04-07T05:50:29;100265.34;;;5.51;100.00
75913;BME280;64592;52.168;21.040;2023-04-07T05:55:31;100266.06;;;5.55;100.00
75913;BME280;64592;52.168;21.040;2023-04-07T06:00:33;100266.81;;;5.57;100.00
75913;BME280;64592;52.168;21.040;2023-04-07T06:05:36;100260.44;;;5.59;100.00
75913;BME280;64592;52.168;21.040;2023-04-07T06:10:42;100254.81;;;5.64;100.00
75913;BME280;64592;52.168;21.040;2023-04-07T06:15:44;100258.09;;;5.69;100.00
75913;BME280;64592;52.168;21.040;2023-04-07T06:20:47;100259.66;;;5.73;100.00
75913;BME280;64592;52.168;21.040;2023-04-07T06:25:48;100256.81;;;5.76;100.00
75913;BME280;64592;52.168;21.040;2023-04-07T06:30:52;100261.97;;;5.79;100.00
75913;BME280;64592;52.168;21.040;2023-04-07T06:35:55;100260.06;;;5.81;100.00
75913;BME280;64592;52.168;21.040;2023-04-07T06:40:57;100257.22;;;5.84;100.00
75913;BME280;64592;52.168;21.040;2023-04-07T06:45:59;100268.47;;;5.91;100.00
75913;BME280;64592;52.168;21.040;2023-04-07T06:51:02;100268.19;;;5.95;100.00
75913;BME280;64592;52.168;21.040;2023-04-07T06:56:05;100272.22;;;6.02;100.00
75913;BME280;64592;52.168;21.040;2023-04-07T07:01:07;100266.53;;;6.08;100.00
75913;BME280;64592;52.168;21.040;2023-04-07T07:06:10;100266.00;;;6.17;100.00
75913;BME280;64592;52.168;21.040;2023-04-07T07:11:12;100259.41;;;6.23;100.00
75913;BME280;64592;52.168;21.040;2023-04-07T07:16:14;100257.41;;;6.27;100.00
75913;BME280;64592;52.168;21.040;2023-04-07T07:21:17;100264.22;;;6.32;100.00
75913;BME280;64592;52.168;21.040;2023-04-07T07:26:19;100273.69;;;6.38;100.00
75913;BME280;64592;52.168;21.040;2023-04-07T07:31:21;100270.69;;;6.44;100.00
75913;BME280;64592;52.168;21.040;2023-04-07T07:36:24;100283.84;;;6.47;100.00
75913;BME280;64592;52.168;21.040;2023-04-07T07:41:26;100279.28;;;6.49;100.00
75913;BME280;64592;52.168;21.040;2023-04-07T07:46:28;100287.63;;;6.58;100.00
75913;BME280;64592;52.168;21.040;2023-04-07T07:51:31;100280.84;;;6.67;100.00
75913;BME280;64592;52.168;21.040;2023-04-07T07:56:33;100277.59;;;6.76;100.00
75913;BME280;64592;52.168;21.040;2023-04-07T08:01:35;100283.19;;;6.87;100.00
75913;BME280;64592;52.168;21.040;2023-04-07T08:06:39;100290.47;;;6.99;100.00
75913;BME280;64592;52.168;21.040;2023-04-07T08:11:41;100288.56;;;7.16;100.00
75913;BME280;64592;52.168;21.040;2023-04-07T08:16:43;100287.22;;;7.23;100.00
75913;BME280;64592;52.168;21.040;2023-04-07T08:21:46;100278.59;;;7.32;100.00
75913;BME280;64592;52.168;21.040;2023-04-07T08:26:48;100273.69;;;7.38;100.00
75913;BME280;64592;52.168;21.040;2023-04-07T08:31:49;100283.25;;;7.43;100.00
75913;BME280;64592;52.168;21.040;2023-04-07T08:36:52;100285.53;;;7.49;100.00
75913;BME280;64592;52.168;21.040;2023-04-07T08:41:55;100289.69;;;7.54;100.00
75913;BME280;64592;52.168;21.040;2023-04-07T08:46:58;100277.88;;;7.57;100.00
75913;BME280;64592;52.168;21.040;2023-04-07T08:52:05;100284.06;;;7.71;100.00
75913;BME280;64592;52.168;21.040;2023-04-07T08:57:07;100280.50;;;7.85;100.00
75913;BME280;64592;52.168;21.040;2023-04-07T09:02:09;100280.97;;;7.92;100.00
75913;BME280;64592;52.168;21.040;2023-04-07T09:07:12;100284.00;;;8.00;100.00
75913;BME280;64592;52.168;21.040;2023-04-07T09:12:14;100288.19;;;8.04;100.00
75913;BME280;64592;52.168;21.040;2023-04-07T09:17:16;100288.00;;;8.07;100.00
75913;BME280;64592;52.168;21.040;2023-04-07T09:22:33;100288.88;;;8.07;100.00
75913;BME280;64592;52.168;21.040;2023-04-07T09:27:35;100281.78;;;8.06;100.00
75913;BME280;64592;52.168;21.040;2023-04-07T09:32:36;100283.59;;;8.06;100.00
75913;BME280;64592;52.168;21.040;2023-04-07T09:37:40;100283.50;;;8.07;100.00
75913;BME280;64592;52.168;21.040;2023-04-07T09:42:44;100284.06;;;8.12;100.00
75913;BME280;64592;52.168;21.040;2023-04-07T09:47:47;100280.09;;;8.18;100.00
75913;BME280;64592;52.168;21.040;2023-04-07T09:52:51;100284.19;;;8.24;100.00
75913;BME280;64592;52.168;21.040;2023-04-07T09:57:53;100279.19;;;8.32;100.00
75913;BME280;64592;52.168;21.040;2023-04-07T10:02:56;100285.56;;;8.43;100.00
75913;BME280;64592;52.168;21.040;2023-04-07T10:07:59;100284.19;;;8.50;100.00
75913;BME280;64592;52.168;21.040;2023-04-07T10:13:03;100284.72;;;8.55;100.00
75913;BME280;64592;52.168;21.040;2023-04-07T10:18:06;100289.91;;;8.59;100.00
75913;BME280;64592;52.168;21.040;2023-04-07T10:23:15;100290.34;;;8.65;100.00
75913;BME280;64592;52.168;21.040;2023-04-07T10:28:20;100294.97;;;8.76;100.00
75913;BME280;64592;52.168;21.040;2023-04-07T10:33:45;100294.53;;;8.82;100.00
75913;BME280;64592;52.168;21.040;2023-04-07T10:39:19;100296.81;;;8.88;100.00
75913;BME280;64592;52.168;21.040;2023-04-07T10:44:46;100297.25;;;8.94;100.00
75913;BME280;64592;52.168;21.040;2023-04-07T10:50:17;100302.09;;;9.02;100.00
75913;BME280;64592;52.168;21.040;2023-04-07T10:55:38;100304.44;;;9.07;100.00
75913;BME280;64592;52.168;21.040;2023-04-07T11:00:41;100307.56;;;9.13;100.00
75913;BME280;64592;52.168;21.040;2023-04-07T11:05:43;100305.00;;;9.24;100.00
75913;BME280;64592;52.168;21.040;2023-04-07T11:10:47;100308.22;;;9.29;100.00
75913;BME280;64592;52.168;21.040;2023-04-07T11:15:50;100315.13;;;9.33;100.00
75913;BME280;64592;52.168;21.040;2023-04-07T11:20:52;100300.47;;;9.38;100.00
75913;BME280;64592;52.168;21.040;2023-04-07T11:26:01;100296.47;;;9.43;100.00
75913;BME280;64592;52.168;21.040;2023-04-07T11:31:03;100309.59;;;9.48;100.00
75913;BME280;64592;52.168;21.040;2023-04-07T11:36:05;100311.19;;;9.50;100.00
75913;BME280;64592;52.168;21.040;2023-04-07T11:41:13;100312.81;;;9.53;100.00
75913;BME280;64592;52.168;21.040;2023-04-07T11:46:16;100313.78;;;9.52;100.00
75913;BME280;64592;52.168;21.040;2023-04-07T11:51:19;100326.28;;;9.53;100.00
75913;BME280;64592;52.168;21.040;2023-04-07T11:56:25;100318.19;;;9.53;100.00
75913;BME280;64592;52.168;21.040;2023-04-07T12:01:38;100317.34;;;9.52;100.00
75913;BME280;64592;52.168;21.040;2023-04-07T12:06:40;100328.19;;;9.51;100.00
75913;BME280;64592;52.168;21.040;2023-04-07T12:11:48;100322.63;;;9.54;100.00
75913;BME280;64592;52.168;21.040;2023-04-07T12:16:50;100329.28;;;9.61;100.00
75913;BME280;64592;52.168;21.040;2023-04-07T12:21:52;100328.72;;;9.68;100.00
75913;BME280;64592;52.168;21.040;2023-04-07T12:26:55;100333.09;;;9.82;100.00
75913;BME280;64592;52.168;21.040;2023-04-07T12:31:57;100343.66;;;9.85;100.00
75913;BME280;64592;52.168;21.040;2023-04-07T12:36:59;100355.81;;;9.91;100.00
75913;BME280;64592;52.168;21.040;2023-04-07T12:42:02;100362.69;;;9.95;98.17
75913;BME280;64592;52.168;21.040;2023-04-07T12:47:04;100359.22;;;10.05;95.81
75913;BME280;64592;52.168;21.040;2023-04-07T12:52:06;100360.56;;;10.24;91.95
75913;BME280;64592;52.168;21.040;2023-04-07T12:57:09;100367.22;;;10.31;89.20
75913;BME280;64592;52.168;21.040;2023-04-07T13:02:10;100370.38;;;10.25;88.10
75913;BME280;64592;52.168;21.040;2023-04-07T13:07:13;100372.31;;;10.23;87.49
75913;BME280;64592;52.168;21.040;2023-04-07T13:12:16;100381.41;;;10.22;86.22
75913;BME280;64592;52.168;21.040;2023-04-07T13:17:18;100385.28;;;10.18;85.87
75913;BME280;64592;52.168;21.040;2023-04-07T13:22:19;100386.66;;;10.10;84.58
75913;BME280;64592;52.168;21.040;2023-04-07T13:27:22;100405.00;;;10.05;84.64
75913;BME280;64592;52.168;21.040;2023-04-07T13:32:24;100388.19;;;10.02;84.98
75913;BME280;64592;52.168;21.040;2023-04-07T13:37:26;100401.03;;;9.98;85.16
75913;BME280;64592;52.168;21.040;2023-04-07T13:42:29;100392.19;;;9.96;83.78
75913;BME280;64592;52.168;21.040;2023-04-07T13:47:31;100396.81;;;9.94;83.99
75913;BME280;64592;52.168;21.040;2023-04-07T13:52:33;100396.63;;;9.97;83.13
75913;BME280;64592;52.168;21.040;2023-04-07T13:57:36;100398.75;;;10.05;82.37
75913;BME280;64592;52.168;21.040;2023-04-07T14:02:38;100417.06;;;10.12;82.16
75913;BME280;64592;52.168;21.040;2023-04-07T14:07:40;100403.47;;;10.14;80.26
75913;BME280;64592;52.168;21.040;2023-04-07T14:12:43;100401.75;;;10.13;80.87
75913;BME280;64592;52.168;21.040;2023-04-07T14:17:45;100415.53;;;10.08;80.92
75913;BME280;64592;52.168;21.040;2023-04-07T14:22:46;100447.34;;;10.03;80.53
75913;BME280;64592;52.168;21.040;2023-04-07T14:27:50;100444.66;;;9.78;81.28
75913;BME280;64592;52.168;21.040;2023-04-07T14:32:51;100448.56;;;9.61;80.45
75913;BME280;64592;52.168;21.040;2023-04-07T14:37:53;100446.16;;;9.44;81.24
75913;BME280;64592;52.168;21.040;2023-04-07T14:42:56;100446.16;;;9.31;82.40
75913;BME280;64592;52.168;21.040;2023-04-07T14:47:58;100451.09;;;9.25;81.53
75913;BME280;64592;52.168;21.040;2023-04-07T14:53:00;100462.81;;;9.24;81.81
75913;BME280;64592;52.168;21.040;2023-04-07T14:58:04;100465.94;;;9.18;81.96
75913;BME280;64592;52.168;21.040;2023-04-07T15:03:05;100465.50;;;9.11;82.18
75913;BME280;64592;52.168;21.040;2023-04-07T15:08:07;100468.72;;;9.16;80.77
75913;BME280;64592;52.168;21.040;2023-04-07T15:13:10;100470.66;;;9.14;80.70
75913;BME280;64592;52.168;21.040;2023-04-07T15:18:12;100479.69;;;9.13;80.76
75913;BME280;64592;52.168;21.040;2023-04-07T15:23:13;100481.41;;;9.14;81.34
75913;BME280;64592;52.168;21.040;2023-04-07T15:28:17;100492.94;;;9.16;80.60
75913;BME280;64592;52.168;21.040;2023-04-07T15:33:18;100488.19;;;9.20;79.01
75913;BME280;64592;52.168;21.040;2023-04-07T15:38:20;100487.69;;;9.27;79.02
75913;BME280;64592;52.168;21.040;2023-04-07T15:43:23;100501.13;;;9.27;79.44
75913;BME280;64592;52.168;21.040;2023-04-07T15:48:25;100505.34;;;9.31;80.27
75913;BME280;64592;52.168;21.040;2023-04-07T15:53:26;100502.09;;;9.26;79.31
75913;BME280;64592;52.168;21.040;2023-04-07T15:58:30;100492.72;;;9.19;78.43
75913;BME280;64592;52.168;21.040;2023-04-07T16:03:32;100505.72;;;9.13;76.00
75913;BME280;64592;52.168;21.040;2023-04-07T16:08:33;100508.19;;;9.03;75.26
75913;BME280;64592;52.168;21.040;2023-04-07T16:13:36;100517.28;;;9.01;75.27
75913;BME280;64592;52.168;21.040;2023-04-07T16:18:38;100514.94;;;8.96;75.49
75913;BME280;64592;52.168;21.040;2023-04-07T16:23:40;100520.59;;;8.91;74.78
75913;BME280;64592;52.168;21.040;2023-04-07T16:28:43;100521.66;;;8.89;74.07
75913;BME280;64592;52.168;21.040;2023-04-07T16:33:45;100532.81;;;8.83;74.35
75913;BME280;64592;52.168;21.040;2023-04-07T16:38:46;100548.06;;;8.82;74.66
75913;BME280;64592;52.168;21.040;2023-04-07T16:43:51;100566.22;;;8.79;75.50
75913;BME280;64592;52.168;21.040;2023-04-07T16:48:53;100563.84;;;8.74;74.94
75913;BME280;64592;52.168;21.040;2023-04-07T16:53:55;100582.16;;;8.68;74.04
75913;BME280;64592;52.168;21.040;2023-04-07T16:58:58;100587.06;;;8.61;74.50
75913;BME280;64592;52.168;21.040;2023-04-07T17:03:59;100607.31;;;8.52;73.07
75913;BME280;64592;52.168;21.040;2023-04-07T17:09:01;100607.94;;;8.43;75.14
75913;BME280;64592;52.168;21.040;2023-04-07T17:14:04;100612.81;;;8.37;74.74
75913;BME280;64592;52.168;21.040;2023-04-07T17:19:06;100615.09;;;8.29;75.23
75913;BME280;64592;52.168;21.040;2023-04-07T17:24:08;100618.25;;;8.21;75.83
75913;BME280;64592;52.168;21.040;2023-04-07T17:29:11;100628.88;;;8.23;75.42
75913;BME280;64592;52.168;21.040;2023-04-07T17:34:12;100637.22;;;8.18;75.63
75913;BME280;64592;52.168;21.040;2023-04-07T17:39:14;100649.13;;;8.14;76.08
75913;BME280;64592;52.168;21.040;2023-04-07T17:44:17;100651.19;;;8.09;77.18
75913;BME280;64592;52.168;21.040;2023-04-07T17:49:19;100656.56;;;8.09;76.87
75913;BME280;64592;52.168;21.040;2023-04-07T17:54:21;100666.72;;;8.04;78.02
75913;BME280;64592;52.168;21.040;2023-04-07T17:59:24;100679.44;;;8.00;78.14
75913;BME280;64592;52.168;21.040;2023-04-07T18:04:26;100683.00;;;8.01;77.33
75913;BME280;64592;52.168;21.040;2023-04-07T18:09:28;100692.13;;;7.98;78.73
75913;BME280;64592;52.168;21.040;2023-04-07T18:14:31;100711.06;;;7.95;77.86
75913;BME280;64592;52.168;21.040;2023-04-07T18:19:35;100721.91;;;7.94;78.41
75913;BME280;64592;52.168;21.040;2023-04-07T18:24:37;100723.13;;;7.88;79.00
75913;BME280;64592;52.168;21.040;2023-04-07T18:29:40;100732.50;;;7.81;78.92
75913;BME280;64592;52.168;21.040;2023-04-07T18:34:45;100736.50;;;7.74;79.48
75913;BME280;64592;52.168;21.040;2023-04-07T18:39:47;100738.50;;;7.70;79.65
75913;BME280;64592;52.168;21.040;2023-04-07T18:44:50;100744.81;;;7.69;79.89
75913;BME280;64592;52.168;21.040;2023-04-07T18:49:52;100756.75;;;7.64;79.84
75913;BME280;64592;52.168;21.040;2023-04-07T18:54:53;100762.38;;;7.59;80.24
75913;BME280;64592;52.168;21.040;2023-04-07T18:59:58;100772.50;;;7.54;79.83
75913;BME280;64592;52.168;21.040;2023-04-07T19:05:00;100778.03;;;7.51;80.09
75913;BME280;64592;52.168;21.040;2023-04-07T19:10:02;100778.97;;;7.50;79.60
75913;BME280;64592;52.168;21.040;2023-04-07T19:15:07;100790.84;;;7.46;79.38
75913;BME280;64592;52.168;21.040;2023-04-07T19:20:09;100795.59;;;7.41;81.02
75913;BME280;64592;52.168;21.040;2023-04-07T19:25:11;100800.19;;;7.39;80.86
75913;BME280;64592;52.168;21.040;2023-04-07T19:30:14;100797.59;;;7.37;81.01
75913;BME280;64592;52.168;21.040;2023-04-07T19:35:16;100801.56;;;7.30;81.46
75913;BME280;64592;52.168;21.040;2023-04-07T19:40:18;100807.00;;;7.29;81.01
75913;BME280;64592;52.168;21.040;2023-04-07T19:45:21;100815.38;;;7.23;81.31
75913;BME280;64592;52.168;21.040;2023-04-07T19:50:23;100821.00;;;7.18;81.03
75913;BME280;64592;52.168;21.040;2023-04-07T19:55:27;100825.72;;;7.13;79.49
75913;BME280;64592;52.168;21.040;2023-04-07T20:00:33;100833.22;;;7.07;78.57
75913;BME280;64592;52.168;21.040;2023-04-07T20:05:35;100853.00;;;7.04;77.91
75913;BME280;64592;52.168;21.040;2023-04-07T20:10:37;100856.13;;;6.96;77.93
75913;BME280;64592;52.168;21.040;2023-04-07T20:15:40;100860.78;;;6.93;77.14
75913;BME280;64592;52.168;21.040;2023-04-07T20:20:43;100875.44;;;6.86;76.21
75913;BME280;64592;52.168;21.040;2023-04-07T20:25:45;100881.81;;;6.83;74.19
75913;BME280;64592;52.168;21.040;2023-04-07T20:30:48;100887.06;;;6.68;74.71
75913;BME280;64592;52.168;21.040;2023-04-07T20:35:50;100890.16;;;6.60;75.10
75913;BME280;64592;52.168;21.040;2023-04-07T20:40:54;100894.06;;;6.53;75.13
75913;BME280;64592;52.168;21.040;2023-04-07T20:45:57;100890.53;;;6.52;75.90
75913;BME280;64592;52.168;21.040;2023-04-07T20:50:59;100889.09;;;6.45;75.75
75913;BME280;64592;52.168;21.040;2023-04-07T20:56:01;100895.50;;;6.43;76.31
75913;BME280;64592;52.168;21.040;2023-04-07T21:01:06;100905.47;;;6.39;76.67
75913;BME280;64592;52.168;21.040;2023-04-07T21:06:08;100906.91;;;6.29;77.52
75913;BME280;64592;52.168;21.040;2023-04-07T21:11:10;100895.69;;;6.21;77.42
75913;BME280;64592;52.168;21.040;2023-04-07T21:16:13;100900.31;;;6.17;78.76
75913;BME280;64592;52.168;21.040;2023-04-07T21:21:15;100907.53;;;6.15;77.96
75913;BME280;64592;52.168;21.040;2023-04-07T21:26:17;100911.47;;;6.08;77.63
75913;BME280;64592;52.168;21.040;2023-04-07T21:31:23;100916.97;;;6.05;78.03
75913;BME280;64592;52.168;21.040;2023-04-07T21:36:25;100918.78;;;6.05;77.69
75913;BME280;64592;52.168;21.040;2023-04-07T21:41:27;100928.63;;;6.04;77.87
75913;BME280;64592;52.168;21.040;2023-04-07T21:46:30;100939.31;;;6.04;76.69
75913;BME280;64592;52.168;21.040;2023-04-07T21:51:32;100938.31;;;6.07;75.37
75913;BME280;64592;52.168;21.040;2023-04-07T21:56:34;100943.88;;;6.02;75.09
75913;BME280;64592;52.168;21.040;2023-04-07T22:01:37;100969.06;;;5.98;75.74
75913;BME280;64592;52.168;21.040;2023-04-07T22:06:39;100956.09;;;5.89;74.63
75913;BME280;64592;52.168;21.040;2023-04-07T22:11:40;100958.84;;;5.88;75.02
75913;BME280;64592;52.168;21.040;2023-04-07T22:16:45;100950.06;;;5.84;74.75
75913;BME280;64592;52.168;21.040;2023-04-07T22:21:46;100959.03;;;5.83;75.12
75913;BME280;64592;52.168;21.040;2023-04-07T22:26:48;100961.75;;;5.81;74.11
75913;BME280;64592;52.168;21.040;2023-04-07T22:31:54;100957.56;;;5.76;74.93
75913;BME280;64592;52.168;21.040;2023-04-07T22:36:56;100958.50;;;5.75;74.87
75913;BME280;64592;52.168;21.040;2023-04-07T22:41:57;100965.59;;;5.76;73.90
75913;BME280;64592;52.168;21.040;2023-04-07T22:47:00;100962.06;;;5.75;75.29
75913;BME280;64592;52.168;21.040;2023-04-07T22:52:03;100972.00;;;5.72;75.24
75913;BME280;64592;52.168;21.040;2023-04-07T22:57:04;100979.03;;;5.74;74.70
75913;BME280;64592;52.168;21.040;2023-04-07T23:02:07;100961.31;;;5.72;75.58
75913;BME280;64592;52.168;21.040;2023-04-07T23:07:09;100969.50;;;5.69;75.14
75913;BME280;64592;52.168;21.040;2023-04-07T23:12:11;100974.84;;;5.69;74.87
75913;BME280;64592;52.168;21.040;2023-04-07T23:17:14;100972.22;;;5.67;75.79
75913;BME280;64592;52.168;21.040;2023-04-07T23:22:16;100976.72;;;5.67;75.31
75913;BME280;64592;52.168;21.040;2023-04-07T23:27:19;100971.22;;;5.70;75.38
75913;BME280;64592;52.168;21.040;2023-04-07T23:32:22;100979.44;;;5.65;75.47
75913;BME280;64592;52.168;21.040;2023-04-07T23:37:23;100976.72;;;5.67;74.17
75913;BME280;64592;52.168;21.040;2023-04-07T23:42:25;100969.78;;;5.63;74.93
75913;BME280;64592;52.168;21.040;2023-04-07T23:47:28;100968.03;;;5.62;75.60
75913;BME280;64592;52.168;21.040;2023-04-07T23:52:30;100969.63;;;5.66;75.16
75913;BME280;64592;52.168;21.040;2023-04-07T23:57:32;100968.91;;;5.62;75.69
